sensor_id;sensor_type;location;lat;lon;timestamp;temperature;humidity
33139;DHT22;19501;50.948;5.316;2022-12-18T00:01:02;-5.10;99.90
33139;DHT22;19501;50.948;5.316;2022-12-18T00:03:35;-5.10;99.90
33139;DHT22;19501;50.948;5.316;2022-12-18T00:06:01;-5.10;99.90
33139;DHT22;19501;50.948;5.316;2022-12-18T00:08:27;-5.20;99.90
33139;DHT22;19501;50.948;5.316;2022-12-18T00:10:53;-5.20;99.90
33139;DHT22;19501;50.948;5.316;2022-12-18T00:13:19;-5.30;99.90
33139;DHT22;19501;50.948;5.316;2022-12-18T00:15:45;-5.10;99.90
33139;DHT22;19501;50.948;5.316;2022-12-18T00:18:11;-5.10;99.90
33139;DHT22;19501;50.948;5.316;2022-12-18T00:20:37;-5.00;99.90
33139;DHT22;19501;50.948;5.316;2022-12-18T00:23:05;-5.00;99.90
33139;DHT22;19501;50.948;5.316;2022-12-18T00:25:35;-5.10;99.90
33139;DHT22;19501;50.948;5.316;2022-12-18T00:28:03;-5.10;99.90
33139;DHT22;19501;50.948;5.316;2022-12-18T00:30:29;-5.10;99.90
33139;DHT22;19501;50.948;5.316;2022-12-18T00:32:56;-5.20;99.90
33139;DHT22;19501;50.948;5.316;2022-12-18T00:35:22;-5.20;99.90
33139;DHT22;19501;50.948;5.316;2022-12-18T00:37:50;-5.20;99.90
33139;DHT22;19501;50.948;5.316;2022-12-18T00:40:16;-5.30;99.90
33139;DHT22;19501;50.948;5.316;2022-12-18T00:42:41;-5.30;99.90
33139;DHT22;19501;50.948;5.316;2022-12-18T00:45:25;-5.40;99.90
33139;DHT22;19501;50.948;5.316;2022-12-18T00:47:51;-5.40;99.90
33139;DHT22;19501;50.948;5.316;2022-12-18T00:50:18;-5.40;99.90
33139;DHT22;19501;50.948;5.316;2022-12-18T00:52:46;-5.30;99.90
33139;DHT22;19501;50.948;5.316;2022-12-18T00:55:13;-5.30;99.90
33139;DHT22;19501;50.948;5.316;2022-12-18T00:57:39;-5.30;99.90
33139;DHT22;19501;50.948;5.316;2022-12-18T01:00:06;-5.30;99.90
33139;DHT22;19501;50.948;5.316;2022-12-18T01:02:32;-5.40;99.90
33139;DHT22;19501;50.948;5.316;2022-12-18T01:04:58;-5.30;99.90
33139;DHT22;19501;50.948;5.316;2022-12-18T01:07:24;-5.30;99.90
33139;DHT22;19501;50.948;5.316;2022-12-18T01:09:49;-5.30;99.90
33139;DHT22;19501;50.948;5.316;2022-12-18T01:12:15;-5.20;99.90
33139;DHT22;19501;50.948;5.316;2022-12-18T01:14:41;-5.20;99.90
33139;DHT22;19501;50.948;5.316;2022-12-18T01:17:07;-5.30;99.90
33139;DHT22;19501;50.948;5.316;2022-12-18T01:19:33;-5.30;99.90
33139;DHT22;19501;50.948;5.316;2022-12-18T01:21:59;-5.30;99.90
33139;DHT22;19501;50.948;5.316;2022-12-18T01:24:24;-5.10;99.90
33139;DHT22;19501;50.948;5.316;2022-12-18T01:26:51;-5.00;99.90
33139;DHT22;19501;50.948;5.316;2022-12-18T01:29:16;-5.00;99.90
33139;DHT22;19501;50.948;5.316;2022-12-18T01:31:42;-4.90;99.90
33139;DHT22;19501;50.948;5.316;2022-12-18T01:34:09;-4.90;99.90
33139;DHT22;19501;50.948;5.316;2022-12-18T01:36:37;-5.10;99.90
33139;DHT22;19501;50.948;5.316;2022-12-18T01:39:06;-5.10;99.90
33139;DHT22;19501;50.948;5.316;2022-12-18T01:41:34;-5.10;99.90
33139;DHT22;19501;50.948;5.316;2022-12-18T01:53:15;-5.20;99.90
33139;DHT22;19501;50.948;5.316;2022-12-18T01:55:48;-5.30;99.90
33139;DHT22;19501;50.948;5.316;2022-12-18T01:58:14;-5.30;99.90
33139;DHT22;19501;50.948;5.316;2022-12-18T02:00:40;-5.30;99.90
33139;DHT22;19501;50.948;5.316;2022-12-18T02:03:06;-5.30;99.90
33139;DHT22;19501;50.948;5.316;2022-12-18T02:08:39;-5.40;99.90
33139;DHT22;19501;50.948;5.316;2022-12-18T02:16:43;-5.30;99.90
33139;DHT22;19501;50.948;5.316;2022-12-18T02:28:04;-5.30;99.90
33139;DHT22;19501;50.948;5.316;2022-12-18T02:30:33;-5.30;99.90
33139;DHT22;19501;50.948;5.316;2022-12-18T02:33:00;-5.40;99.90
33139;DHT22;19501;50.948;5.316;2022-12-18T02:35:29;-5.50;99.90
33139;DHT22;19501;50.948;5.316;2022-12-18T02:37:55;-5.60;99.90
33139;DHT22;19501;50.948;5.316;2022-12-18T02:40:26;-5.70;99.90
33139;DHT22;19501;50.948;5.316;2022-12-18T02:42:52;-5.80;99.90
33139;DHT22;19501;50.948;5.316;2022-12-18T02:45:18;-5.80;99.90
33139;DHT22;19501;50.948;5.316;2022-12-18T02:47:48;-5.80;99.90
33139;DHT22;19501;50.948;5.316;2022-12-18T02:50:35;-5.80;99.90
33139;DHT22;19501;50.948;5.316;2022-12-18T03:01:03;-5.90;99.90
33139;DHT22;19501;50.948;5.316;2022-12-18T03:03:48;-6.00;99.90
33139;DHT22;19501;50.948;5.316;2022-12-18T03:06:30;-6.00;99.90
33139;DHT22;19501;50.948;5.316;2022-12-18T03:09:04;-6.00;99.90
33139;DHT22;19501;50.948;5.316;2022-12-18T03:11:34;-6.00;99.90
33139;DHT22;19501;50.948;5.316;2022-12-18T03:14:21;-6.00;99.90
33139;DHT22;19501;50.948;5.316;2022-12-18T03:16:50;-6.00;99.90
33139;DHT22;19501;50.948;5.316;2022-12-18T03:19:22;-6.00;99.90
33139;DHT22;19501;50.948;5.316;2022-12-18T03:21:57;-5.90;99.90
33139;DHT22;19501;50.948;5.316;2022-12-18T03:24:26;-5.90;99.90
33139;DHT22;19501;50.948;5.316;2022-12-18T03:26:57;-5.90;99.90
33139;DHT22;19501;50.948;5.316;2022-12-18T03:32:15;-6.00;99.90
33139;DHT22;19501;50.948;5.316;2022-12-18T03:34:43;-6.00;99.90
33139;DHT22;19501;50.948;5.316;2022-12-18T03:37:14;-6.00;99.90
33139;DHT22;19501;50.948;5.316;2022-12-18T03:39:41;-5.90;99.90
33139;DHT22;19501;50.948;5.316;2022-12-18T03:45:20;-6.00;99.90
33139;DHT22;19501;50.948;5.316;2022-12-18T03:48:07;-6.20;99.90
33139;DHT22;19501;50.948;5.316;2022-12-18T03:50:45;-6.30;99.90
33139;DHT22;19501;50.948;5.316;2022-12-18T03:53:26;-6.30;99.90
33139;DHT22;19501;50.948;5.316;2022-12-18T03:55:55;-6.30;99.90
33139;DHT22;19501;50.948;5.316;2022-12-18T03:58:26;-6.30;99.90
33139;DHT22;19501;50.948;5.316;2022-12-18T04:00:55;-6.40;99.90
33139;DHT22;19501;50.948;5.316;2022-12-18T04:03:23;-6.40;99.90
33139;DHT22;19501;50.948;5.316;2022-12-18T04:05:51;-6.50;99.90
33139;DHT22;19501;50.948;5.316;2022-12-18T04:08:18;-6.40;99.90
33139;DHT22;19501;50.948;5.316;2022-12-18T04:10:45;-6.40;99.90
33139;DHT22;19501;50.948;5.316;2022-12-18T04:13:11;-6.50;99.90
33139;DHT22;19501;50.948;5.316;2022-12-18T04:15:37;-6.50;99.90
33139;DHT22;19501;50.948;5.316;2022-12-18T04:18:03;-6.50;99.90
33139;DHT22;19501;50.948;5.316;2022-12-18T04:20:29;-6.50;99.90
33139;DHT22;19501;50.948;5.316;2022-12-18T04:22:57;-6.50;99.90
33139;DHT22;19501;50.948;5.316;2022-12-18T04:25:23;-6.50;99.90
33139;DHT22;19501;50.948;5.316;2022-12-18T04:27:49;-6.60;99.90
33139;DHT22;19501;50.948;5.316;2022-12-18T04:30:15;-6.60;99.90
33139;DHT22;19501;50.948;5.316;2022-12-18T04:32:43;-6.60;99.90
33139;DHT22;19501;50.948;5.316;2022-12-18T04:35:09;-6.60;99.90
33139;DHT22;19501;50.948;5.316;2022-12-18T04:37:36;-6.60;99.90
33139;DHT22;19501;50.948;5.316;2022-12-18T04:40:01;-6.50;99.90
33139;DHT22;19501;50.948;5.316;2022-12-18T04:42:27;-6.50;99.90
33139;DHT22;19501;50.948;5.316;2022-12-18T04:44:53;-6.70;99.90
33139;DHT22;19501;50.948;5.316;2022-12-18T04:47:19;-6.80;99.90
33139;DHT22;19501;50.948;5.316;2022-12-18T04:49:45;-6.80;99.90
33139;DHT22;19501;50.948;5.316;2022-12-18T04:52:10;-6.70;99.90
33139;DHT22;19501;50.948;5.316;2022-12-18T04:54:36;-6.70;99.90
33139;DHT22;19501;50.948;5.316;2022-12-18T04:57:01;-6.80;99.90
33139;DHT22;19501;50.948;5.316;2022-12-18T04:59:27;-6.80;99.90
33139;DHT22;19501;50.948;5.316;2022-12-18T05:01:53;-6.80;99.90
33139;DHT22;19501;50.948;5.316;2022-12-18T05:04:19;-6.70;99.90
33139;DHT22;19501;50.948;5.316;2022-12-18T05:06:44;-6.60;99.90
33139;DHT22;19501;50.948;5.316;2022-12-18T05:09:11;-6.60;99.90
33139;DHT22;19501;50.948;5.316;2022-12-18T05:11:36;-6.60;99.90
33139;DHT22;19501;50.948;5.316;2022-12-18T05:14:02;-6.70;99.90
33139;DHT22;19501;50.948;5.316;2022-12-18T05:16:28;-6.60;99.90
33139;DHT22;19501;50.948;5.316;2022-12-18T05:18:54;-6.70;99.90
33139;DHT22;19501;50.948;5.316;2022-12-18T05:21:19;-6.80;99.90
33139;DHT22;19501;50.948;5.316;2022-12-18T05:23:45;-6.80;99.90
33139;DHT22;19501;50.948;5.316;2022-12-18T05:26:15;-6.80;99.90
33139;DHT22;19501;50.948;5.316;2022-12-18T05:28:41;-6.90;99.90
33139;DHT22;19501;50.948;5.316;2022-12-18T05:31:07;-6.80;99.90
33139;DHT22;19501;50.948;5.316;2022-12-18T05:33:34;-6.80;99.90
33139;DHT22;19501;50.948;5.316;2022-12-18T05:36:01;-6.80;99.90
33139;DHT22;19501;50.948;5.316;2022-12-18T05:38:27;-6.80;99.90
33139;DHT22;19501;50.948;5.316;2022-12-18T05:40:55;-6.80;99.90
33139;DHT22;19501;50.948;5.316;2022-12-18T05:43:21;-6.80;99.90
33139;DHT22;19501;50.948;5.316;2022-12-18T05:45:47;-6.80;99.90
33139;DHT22;19501;50.948;5.316;2022-12-18T05:48:13;-6.80;99.90
33139;DHT22;19501;50.948;5.316;2022-12-18T05:50:41;-6.80;99.90
33139;DHT22;19501;50.948;5.316;2022-12-18T05:53:08;-6.80;99.90
33139;DHT22;19501;50.948;5.316;2022-12-18T05:55:38;-6.80;99.90
33139;DHT22;19501;50.948;5.316;2022-12-18T05:58:06;-6.70;99.90
33139;DHT22;19501;50.948;5.316;2022-12-18T06:00:34;-6.70;99.90
33139;DHT22;19501;50.948;5.316;2022-12-18T06:03:01;-6.70;99.90
33139;DHT22;19501;50.948;5.316;2022-12-18T06:05:27;-6.70;99.90
33139;DHT22;19501;50.948;5.316;2022-12-18T06:07:53;-6.60;99.90
33139;DHT22;19501;50.948;5.316;2022-12-18T06:10:19;-6.60;99.90
33139;DHT22;19501;50.948;5.316;2022-12-18T06:12:45;-6.70;99.90
33139;DHT22;19501;50.948;5.316;2022-12-18T06:15:13;-6.70;99.90
33139;DHT22;19501;50.948;5.316;2022-12-18T06:17:39;-6.70;99.90
33139;DHT22;19501;50.948;5.316;2022-12-18T06:20:05;-6.60;99.90
33139;DHT22;19501;50.948;5.316;2022-12-18T06:22:32;-6.60;99.90
33139;DHT22;19501;50.948;5.316;2022-12-18T06:24:58;-6.50;99.90
33139;DHT22;19501;50.948;5.316;2022-12-18T06:27:24;-6.50;99.90
33139;DHT22;19501;50.948;5.316;2022-12-18T06:29:50;-6.40;99.90
33139;DHT22;19501;50.948;5.316;2022-12-18T06:32:16;-6.50;99.90
33139;DHT22;19501;50.948;5.316;2022-12-18T06:34:42;-6.50;99.90
33139;DHT22;19501;50.948;5.316;2022-12-18T06:37:07;-6.50;99.90
33139;DHT22;19501;50.948;5.316;2022-12-18T06:39:33;-6.50;99.90
33139;DHT22;19501;50.948;5.316;2022-12-18T06:41:59;-6.50;99.90
33139;DHT22;19501;50.948;5.316;2022-12-18T06:44:25;-6.40;99.90
33139;DHT22;19501;50.948;5.316;2022-12-18T06:46:50;-6.50;99.90
33139;DHT22;19501;50.948;5.316;2022-12-18T06:49:16;-6.50;99.90
33139;DHT22;19501;50.948;5.316;2022-12-18T06:51:42;-6.50;99.90
33139;DHT22;19501;50.948;5.316;2022-12-18T06:54:08;-6.60;99.90
33139;DHT22;19501;50.948;5.316;2022-12-18T06:56:33;-6.60;99.90
33139;DHT22;19501;50.948;5.316;2022-12-18T06:58:59;-6.60;99.90
33139;DHT22;19501;50.948;5.316;2022-12-18T07:01:25;-6.60;99.90
33139;DHT22;19501;50.948;5.316;2022-12-18T07:03:53;-6.70;99.90
33139;DHT22;19501;50.948;5.316;2022-12-18T07:06:24;-6.60;99.90
33139;DHT22;19501;50.948;5.316;2022-12-18T07:08:51;-6.60;99.90
33139;DHT22;19501;50.948;5.316;2022-12-18T07:11:20;-6.70;99.90
33139;DHT22;19501;50.948;5.316;2022-12-18T07:13:46;-6.70;99.90
33139;DHT22;19501;50.948;5.316;2022-12-18T07:16:15;-6.60;99.90
33139;DHT22;19501;50.948;5.316;2022-12-18T07:18:41;-6.60;99.90
33139;DHT22;19501;50.948;5.316;2022-12-18T07:21:10;-6.50;99.90
33139;DHT22;19501;50.948;5.316;2022-12-18T07:23:37;-6.40;99.90
33139;DHT22;19501;50.948;5.316;2022-12-18T07:26:08;-6.30;99.90
33139;DHT22;19501;50.948;5.316;2022-12-18T07:28:35;-6.30;99.90
33139;DHT22;19501;50.948;5.316;2022-12-18T07:31:09;-6.20;99.90
33139;DHT22;19501;50.948;5.316;2022-12-18T07:33:35;-6.20;99.90
33139;DHT22;19501;50.948;5.316;2022-12-18T07:36:05;-6.20;99.90
33139;DHT22;19501;50.948;5.316;2022-12-18T07:38:32;-6.20;99.90
33139;DHT22;19501;50.948;5.316;2022-12-18T07:41:14;-6.00;99.90
33139;DHT22;19501;50.948;5.316;2022-12-18T07:43:41;-6.00;99.90
33139;DHT22;19501;50.948;5.316;2022-12-18T07:46:07;-5.90;99.90
33139;DHT22;19501;50.948;5.316;2022-12-18T07:48:34;-5.90;99.90
33139;DHT22;19501;50.948;5.316;2022-12-18T07:51:02;-5.90;99.90
33139;DHT22;19501;50.948;5.316;2022-12-18T07:53:29;-5.80;99.90
33139;DHT22;19501;50.948;5.316;2022-12-18T07:55:59;-5.80;99.90
33139;DHT22;19501;50.948;5.316;2022-12-18T07:58:26;-5.70;99.90
33139;DHT22;19501;50.948;5.316;2022-12-18T08:00:52;-5.60;99.90
33139;DHT22;19501;50.948;5.316;2022-12-18T08:03:18;-5.60;99.90
33139;DHT22;19501;50.948;5.316;2022-12-18T08:05:44;-5.60;99.90
33139;DHT22;19501;50.948;5.316;2022-12-18T08:08:10;-5.60;99.90
33139;DHT22;19501;50.948;5.316;2022-12-18T08:10:37;-5.60;99.90
33139;DHT22;19501;50.948;5.316;2022-12-18T08:13:03;-5.60;99.90
33139;DHT22;19501;50.948;5.316;2022-12-18T08:15:29;-5.60;99.90
33139;DHT22;19501;50.948;5.316;2022-12-18T08:17:56;-5.50;99.90
33139;DHT22;19501;50.948;5.316;2022-12-18T08:20:22;-5.30;99.90
33139;DHT22;19501;50.948;5.316;2022-12-18T08:22:48;-5.30;99.90
33139;DHT22;19501;50.948;5.316;2022-12-18T08:25:14;-5.30;99.90
33139;DHT22;19501;50.948;5.316;2022-12-18T08:27:39;-5.10;99.90
33139;DHT22;19501;50.948;5.316;2022-12-18T08:30:06;-5.20;99.90
33139;DHT22;19501;50.948;5.316;2022-12-18T08:32:32;-5.20;99.90
33139;DHT22;19501;50.948;5.316;2022-12-18T08:34:58;-5.20;99.90
33139;DHT22;19501;50.948;5.316;2022-12-18T08:37:25;-5.10;99.90
33139;DHT22;19501;50.948;5.316;2022-12-18T08:39:50;-5.00;99.90
33139;DHT22;19501;50.948;5.316;2022-12-18T08:42:16;-4.90;99.90
33139;DHT22;19501;50.948;5.316;2022-12-18T08:45:00;-4.90;99.90
33139;DHT22;19501;50.948;5.316;2022-12-18T08:47:26;-4.70;99.90
33139;DHT22;19501;50.948;5.316;2022-12-18T08:49:52;-4.60;99.90
33139;DHT22;19501;50.948;5.316;2022-12-18T08:52:18;-4.50;99.90
33139;DHT22;19501;50.948;5.316;2022-12-18T08:54:44;-4.50;99.90
33139;DHT22;19501;50.948;5.316;2022-12-18T08:57:10;-4.50;99.90
33139;DHT22;19501;50.948;5.316;2022-12-18T08:59:36;-4.40;99.90
33139;DHT22;19501;50.948;5.316;2022-12-18T09:02:02;-4.30;99.90
33139;DHT22;19501;50.948;5.316;2022-12-18T09:04:28;-4.10;99.90
33139;DHT22;19501;50.948;5.316;2022-12-18T09:06:53;-4.00;99.90
33139;DHT22;19501;50.948;5.316;2022-12-18T09:09:19;-4.00;99.90
33139;DHT22;19501;50.948;5.316;2022-12-18T09:11:45;-4.00;99.90
33139;DHT22;19501;50.948;5.316;2022-12-18T09:14:11;-3.90;99.90
33139;DHT22;19501;50.948;5.316;2022-12-18T09:16:37;-3.90;99.90
33139;DHT22;19501;50.948;5.316;2022-12-18T09:19:04;-3.80;99.90
33139;DHT22;19501;50.948;5.316;2022-12-18T09:21:32;-3.70;99.90
33139;DHT22;19501;50.948;5.316;2022-12-18T09:23:58;-3.50;99.90
33139;DHT22;19501;50.948;5.316;2022-12-18T09:26:25;-3.40;99.90
33139;DHT22;19501;50.948;5.316;2022-12-18T09:28:52;-3.30;99.90
33139;DHT22;19501;50.948;5.316;2022-12-18T09:31:21;-3.30;99.90
33139;DHT22;19501;50.948;5.316;2022-12-18T09:33:47;-3.20;99.90
33139;DHT22;19501;50.948;5.316;2022-12-18T09:36:15;-3.10;99.90
33139;DHT22;19501;50.948;5.316;2022-12-18T09:38:41;-3.10;99.90
33139;DHT22;19501;50.948;5.316;2022-12-18T09:49:39;-2.60;99.90
33139;DHT22;19501;50.948;5.316;2022-12-18T09:54:45;-2.30;99.90
33139;DHT22;19501;50.948;5.316;2022-12-18T09:57:18;-2.20;99.90
33139;DHT22;19501;50.948;5.316;2022-12-18T09:59:53;-2.10;99.90
33139;DHT22;19501;50.948;5.316;2022-12-18T10:02:24;-2.00;99.90
33139;DHT22;19501;50.948;5.316;2022-12-18T10:05:02;-2.10;99.90
33139;DHT22;19501;50.948;5.316;2022-12-18T10:13:45;-1.70;99.90
33139;DHT22;19501;50.948;5.316;2022-12-18T10:16:19;-1.60;99.90
33139;DHT22;19501;50.948;5.316;2022-12-18T10:21:38;-1.30;99.90
33139;DHT22;19501;50.948;5.316;2022-12-18T10:24:14;-1.20;99.90
33139;DHT22;19501;50.948;5.316;2022-12-18T10:26:43;-1.20;99.90
33139;DHT22;19501;50.948;5.316;2022-12-18T10:29:12;-1.30;99.90
33139;DHT22;19501;50.948;5.316;2022-12-18T10:31:39;-1.30;99.90
33139;DHT22;19501;50.948;5.316;2022-12-18T10:34:12;-1.40;99.90
33139;DHT22;19501;50.948;5.316;2022-12-18T10:36:38;-1.30;99.90
33139;DHT22;19501;50.948;5.316;2022-12-18T10:39:23;-1.10;99.90
33139;DHT22;19501;50.948;5.316;2022-12-18T10:41:49;-1.00;99.90
33139;DHT22;19501;50.948;5.316;2022-12-18T10:44:22;-0.90;99.90
33139;DHT22;19501;50.948;5.316;2022-12-18T10:47:03;-0.80;99.90
33139;DHT22;19501;50.948;5.316;2022-12-18T10:49:31;-0.70;99.90
33139;DHT22;19501;50.948;5.316;2022-12-18T10:54:33;-0.60;99.90
33139;DHT22;19501;50.948;5.316;2022-12-18T10:57:18;-0.40;99.90
33139;DHT22;19501;50.948;5.316;2022-12-18T10:59:55;-0.60;99.90
33139;DHT22;19501;50.948;5.316;2022-12-18T11:02:36;-0.60;99.90
33139;DHT22;19501;50.948;5.316;2022-12-18T11:05:29;-0.40;99.90
33139;DHT22;19501;50.948;5.316;2022-12-18T11:07:56;-0.40;99.90
33139;DHT22;19501;50.948;5.316;2022-12-18T11:10:33;-0.40;99.90
33139;DHT22;19501;50.948;5.316;2022-12-18T11:13:22;-0.30;99.90
33139;DHT22;19501;50.948;5.316;2022-12-18T11:15:50;-0.40;99.90
33139;DHT22;19501;50.948;5.316;2022-12-18T11:18:17;-0.30;99.90
33139;DHT22;19501;50.948;5.316;2022-12-18T11:20:51;-0.10;99.90
33139;DHT22;19501;50.948;5.316;2022-12-18T11:23:19;0.00;99.90
33139;DHT22;19501;50.948;5.316;2022-12-18T11:26:05;0.10;99.90
33139;DHT22;19501;50.948;5.316;2022-12-18T11:36:31;0.30;99.90
33139;DHT22;19501;50.948;5.316;2022-12-18T11:39:01;0.40;99.90
33139;DHT22;19501;50.948;5.316;2022-12-18T11:41:50;0.50;99.90
33139;DHT22;19501;50.948;5.316;2022-12-18T11:45:14;0.50;99.90
33139;DHT22;19501;50.948;5.316;2022-12-18T11:48:11;0.60;99.90
33139;DHT22;19501;50.948;5.316;2022-12-18T11:50:51;0.80;99.90
33139;DHT22;19501;50.948;5.316;2022-12-18T11:53:18;1.00;99.90
33139;DHT22;19501;50.948;5.316;2022-12-18T11:56:02;1.10;99.90
33139;DHT22;19501;50.948;5.316;2022-12-18T11:58:40;1.20;99.90
33139;DHT22;19501;50.948;5.316;2022-12-18T12:12:58;1.20;99.90
33139;DHT22;19501;50.948;5.316;2022-12-18T12:21:08;1.30;99.90
33139;DHT22;19501;50.948;5.316;2022-12-18T12:38:10;1.30;99.90
33139;DHT22;19501;50.948;5.316;2022-12-18T12:40:48;1.40;99.90
33139;DHT22;19501;50.948;5.316;2022-12-18T12:43:35;1.40;99.90
33139;DHT22;19501;50.948;5.316;2022-12-18T12:46:06;1.50;99.90
33139;DHT22;19501;50.948;5.316;2022-12-18T12:48:52;1.50;99.90
33139;DHT22;19501;50.948;5.316;2022-12-18T12:51:33;1.60;99.90
33139;DHT22;19501;50.948;5.316;2022-12-18T12:54:01;1.50;99.90
33139;DHT22;19501;50.948;5.316;2022-12-18T12:59:27;1.60;99.90
33139;DHT22;19501;50.948;5.316;2022-12-18T13:02:06;1.50;99.90
33139;DHT22;19501;50.948;5.316;2022-12-18T13:07:32;1.70;99.90
33139;DHT22;19501;50.948;5.316;2022-12-18T13:10:24;1.70;99.90
33139;DHT22;19501;50.948;5.316;2022-12-18T13:13:02;1.80;99.90
33139;DHT22;19501;50.948;5.316;2022-12-18T13:16:08;1.70;99.90
33139;DHT22;19501;50.948;5.316;2022-12-18T13:18:36;1.90;99.90
33139;DHT22;19501;50.948;5.316;2022-12-18T13:21:44;2.00;99.90
33139;DHT22;19501;50.948;5.316;2022-12-18T13:23:50;2.10;99.90
33139;DHT22;19501;50.948;5.316;2022-12-18T13:31:12;2.30;99.90
33139;DHT22;19501;50.948;5.316;2022-12-18T13:33:42;2.30;99.90
33139;DHT22;19501;50.948;5.316;2022-12-18T13:36:27;2.20;99.90
33139;DHT22;19501;50.948;5.316;2022-12-18T13:44:39;2.00;99.90
33139;DHT22;19501;50.948;5.316;2022-12-18T13:47:26;1.90;99.90
33139;DHT22;19501;50.948;5.316;2022-12-18T13:49:54;2.10;99.90
33139;DHT22;19501;50.948;5.316;2022-12-18T13:52:25;2.20;99.90
33139;DHT22;19501;50.948;5.316;2022-12-18T13:54:56;2.10;99.90
33139;DHT22;19501;50.948;5.316;2022-12-18T13:57:36;2.10;99.90
33139;DHT22;19501;50.948;5.316;2022-12-18T14:02:51;2.10;99.90
33139;DHT22;19501;50.948;5.316;2022-12-18T14:05:25;1.90;99.90
33139;DHT22;19501;50.948;5.316;2022-12-18T14:07:52;1.90;99.90
33139;DHT22;19501;50.948;5.316;2022-12-18T14:10:18;1.90;99.90
33139;DHT22;19501;50.948;5.316;2022-12-18T14:12:47;1.90;99.90
33139;DHT22;19501;50.948;5.316;2022-12-18T14:20:26;1.80;99.90
33139;DHT22;19501;50.948;5.316;2022-12-18T14:22:52;1.80;99.90
33139;DHT22;19501;50.948;5.316;2022-12-18T14:25:29;1.90;99.90
33139;DHT22;19501;50.948;5.316;2022-12-18T14:30:44;2.10;99.90
33139;DHT22;19501;50.948;5.316;2022-12-18T14:33:22;2.00;99.90
33139;DHT22;19501;50.948;5.316;2022-12-18T14:36:01;2.00;99.90
33139;DHT22;19501;50.948;5.316;2022-12-18T14:38:29;2.00;99.90
33139;DHT22;19501;50.948;5.316;2022-12-18T14:41:06;2.10;99.90
33139;DHT22;19501;50.948;5.316;2022-12-18T14:43:37;2.00;99.90
33139;DHT22;19501;50.948;5.316;2022-12-18T14:46:05;2.00;99.90
33139;DHT22;19501;50.948;5.316;2022-12-18T14:48:39;2.00;99.90
33139;DHT22;19501;50.948;5.316;2022-12-18T14:51:22;2.00;99.90
33139;DHT22;19501;50.948;5.316;2022-12-18T14:56:34;1.70;99.90
33139;DHT22;19501;50.948;5.316;2022-12-18T14:59:05;1.50;99.90
33139;DHT22;19501;50.948;5.316;2022-12-18T15:03:58;1.10;99.90
33139;DHT22;19501;50.948;5.316;2022-12-18T15:06:30;1.10;99.90
33139;DHT22;19501;50.948;5.316;2022-12-18T15:08:57;1.10;99.90
33139;DHT22;19501;50.948;5.316;2022-12-18T15:14:32;1.20;99.90
33139;DHT22;19501;50.948;5.316;2022-12-18T15:17:00;1.30;99.90
33139;DHT22;19501;50.948;5.316;2022-12-18T15:19:41;1.30;99.90
33139;DHT22;19501;50.948;5.316;2022-12-18T15:24:48;1.20;99.90
33139;DHT22;19501;50.948;5.316;2022-12-18T15:27:45;1.20;99.90
33139;DHT22;19501;50.948;5.316;2022-12-18T15:30:20;1.30;99.90
33139;DHT22;19501;50.948;5.316;2022-12-18T15:32:47;1.30;99.90
33139;DHT22;19501;50.948;5.316;2022-12-18T15:35:20;1.30;99.90
33139;DHT22;19501;50.948;5.316;2022-12-18T15:37:47;1.20;99.90
33139;DHT22;19501;50.948;5.316;2022-12-18T15:40:21;1.20;99.90
33139;DHT22;19501;50.948;5.316;2022-12-18T15:42:50;1.20;99.90
33139;DHT22;19501;50.948;5.316;2022-12-18T15:45:35;1.20;99.90
33139;DHT22;19501;50.948;5.316;2022-12-18T15:48:01;1.30;99.90
33139;DHT22;19501;50.948;5.316;2022-12-18T15:50:26;1.30;99.90
33139;DHT22;19501;50.948;5.316;2022-12-18T15:52:53;1.30;99.90
33139;DHT22;19501;50.948;5.316;2022-12-18T15:55:23;1.40;99.90
33139;DHT22;19501;50.948;5.316;2022-12-18T15:58:08;1.40;99.90
33139;DHT22;19501;50.948;5.316;2022-12-18T16:00:37;1.50;99.90
33139;DHT22;19501;50.948;5.316;2022-12-18T16:03:04;1.50;99.90
33139;DHT22;19501;50.948;5.316;2022-12-18T16:05:31;1.40;99.90
33139;DHT22;19501;50.948;5.316;2022-12-18T16:07:57;1.40;99.90
33139;DHT22;19501;50.948;5.316;2022-12-18T16:10:24;1.40;99.90
33139;DHT22;19501;50.948;5.316;2022-12-18T16:12:51;1.50;99.90
33139;DHT22;19501;50.948;5.316;2022-12-18T16:15:17;1.50;99.90
33139;DHT22;19501;50.948;5.316;2022-12-18T16:17:43;1.50;99.90
33139;DHT22;19501;50.948;5.316;2022-12-18T16:20:16;1.60;99.90
33139;DHT22;19501;50.948;5.316;2022-12-18T16:22:43;1.50;99.90
33139;DHT22;19501;50.948;5.316;2022-12-18T16:25:27;1.60;99.90
33139;DHT22;19501;50.948;5.316;2022-12-18T16:27:54;1.50;99.90
33139;DHT22;19501;50.948;5.316;2022-12-18T16:30:26;1.60;99.90
33139;DHT22;19501;50.948;5.316;2022-12-18T16:32:58;1.60;99.90
33139;DHT22;19501;50.948;5.316;2022-12-18T16:35:25;1.60;99.90
33139;DHT22;19501;50.948;5.316;2022-12-18T16:37:52;1.70;99.90
33139;DHT22;19501;50.948;5.316;2022-12-18T16:40:18;1.70;99.90
33139;DHT22;19501;50.948;5.316;2022-12-18T16:42:46;1.70;99.90
33139;DHT22;19501;50.948;5.316;2022-12-18T16:45:15;1.70;99.90
33139;DHT22;19501;50.948;5.316;2022-12-18T16:47:41;1.80;99.90
33139;DHT22;19501;50.948;5.316;2022-12-18T16:50:08;1.70;99.90
33139;DHT22;19501;50.948;5.316;2022-12-18T16:52:35;1.80;99.90
33139;DHT22;19501;50.948;5.316;2022-12-18T16:55:01;1.80;99.90
33139;DHT22;19501;50.948;5.316;2022-12-18T16:57:27;1.80;99.90
33139;DHT22;19501;50.948;5.316;2022-12-18T16:59:53;1.80;99.90
33139;DHT22;19501;50.948;5.316;2022-12-18T17:02:23;1.90;99.90
33139;DHT22;19501;50.948;5.316;2022-12-18T17:04:52;1.90;99.90
33139;DHT22;19501;50.948;5.316;2022-12-18T17:07:18;2.00;99.90
33139;DHT22;19501;50.948;5.316;2022-12-18T17:09:43;2.00;99.90
33139;DHT22;19501;50.948;5.316;2022-12-18T17:12:10;2.00;99.90
33139;DHT22;19501;50.948;5.316;2022-12-18T17:14:36;2.00;99.90
33139;DHT22;19501;50.948;5.316;2022-12-18T17:17:02;2.00;99.90
33139;DHT22;19501;50.948;5.316;2022-12-18T17:19:28;2.10;99.90
33139;DHT22;19501;50.948;5.316;2022-12-18T17:21:55;2.10;99.90
33139;DHT22;19501;50.948;5.316;2022-12-18T17:24:21;2.00;99.90
33139;DHT22;19501;50.948;5.316;2022-12-18T17:26:47;2.00;99.90
33139;DHT22;19501;50.948;5.316;2022-12-18T17:29:16;2.10;99.90
33139;DHT22;19501;50.948;5.316;2022-12-18T17:31:42;2.00;99.90
33139;DHT22;19501;50.948;5.316;2022-12-18T17:34:10;2.10;99.90
33139;DHT22;19501;50.948;5.316;2022-12-18T17:36:36;2.20;99.90
33139;DHT22;19501;50.948;5.316;2022-12-18T17:39:04;2.20;99.90
33139;DHT22;19501;50.948;5.316;2022-12-18T17:41:30;2.30;99.90
33139;DHT22;19501;50.948;5.316;2022-12-18T17:43:56;2.30;99.90
33139;DHT22;19501;50.948;5.316;2022-12-18T17:46:27;2.40;99.90
33139;DHT22;19501;50.948;5.316;2022-12-18T17:48:58;2.40;99.90
33139;DHT22;19501;50.948;5.316;2022-12-18T17:51:25;2.40;99.90
33139;DHT22;19501;50.948;5.316;2022-12-18T17:53:52;2.40;99.90
33139;DHT22;19501;50.948;5.316;2022-12-18T17:56:19;2.40;99.90
33139;DHT22;19501;50.948;5.316;2022-12-18T17:58:46;2.40;99.90
33139;DHT22;19501;50.948;5.316;2022-12-18T18:01:15;2.40;99.90
33139;DHT22;19501;50.948;5.316;2022-12-18T18:03:41;2.40;99.90
33139;DHT22;19501;50.948;5.316;2022-12-18T18:06:10;2.50;99.90
33139;DHT22;19501;50.948;5.316;2022-12-18T18:08:36;2.50;99.90
33139;DHT22;19501;50.948;5.316;2022-12-18T18:11:07;2.50;99.90